Time;durP1;ratioP1;P1;durP2;ratioP2;P2;SDS_P1;SDS_P2;PMS_P1;PMS_P2;Temp;Humidity;BMP_temperature;BMP_pressure;BME280_temperature;BME280_humidity;BME280_pressure;Samples;Min_cycle;Max_cycle;Signal;HPM_P1;HPM_P2
2023/05/03 00:04:38;;;;;;;;;;;;;;;20.16;47.80;96320.53;10245737;28;1945;-68
2023/05/03 00:09:38;;;;;;;;;;;;;;;20.15;47.96;96318.16;10245274;28;1976;-68
2023/05/03 00:14:38;;;;;;;;;;;;;;;20.14;47.98;96319.19;10231098;28;2086;-68
2023/05/03 00:19:39;;;;;;;;;;;;;;;20.14;47.71;96311.28;10242195;28;1898;-68
2023/05/03 00:24:39;;;;;;;;;;;;;;;20.13;47.73;96309.72;10245972;28;1949;-68
2023/05/03 00:29:39;;;;;;;;;;;;;;;20.11;47.71;96307.31;10234155;28;1972;-67
2023/05/03 00:34:40;;;;;;;;;;;;;;;20.10;47.63;96299.69;10243968;28;1999;-68
2023/05/03 00:39:40;;;;;;;;;;;;;;;20.09;47.64;96296.25;10237151;28;2067;-68
2023/05/03 00:44:40;;;;;;;;;;;;;;;20.09;47.65;96298.13;10237249;28;2258;-67
2023/05/03 00:49:41;;;;;;;;;;;;;;;20.08;47.49;96291.25;10238695;28;4973;-68
2023/05/03 00:54:41;;;;;;;;;;;;;;;20.07;47.65;96293.09;10232741;28;2096;-68
2023/05/03 00:59:41;;;;;;;;;;;;;;;20.07;47.66;96297.59;10246599;28;1965;-68
2023/05/03 01:04:42;;;;;;;;;;;;;;;20.06;47.60;96299.41;10230738;28;2285;-68
2023/05/03 01:09:44;;;;;;;;;;;;;;;20.05;47.50;96294.41;10247689;28;1949;-69
2023/05/03 01:14:57;;;;;;;;;;;;;;;20.04;47.59;96295.47;10236423;28;1927;-68
2023/05/03 01:20:03;;;;;;;;;;;;;;;20.03;47.47;96291.25;10244858;28;1915;-67
2023/05/03 01:25:08;;;;;;;;;;;;;;;20.03;47.32;96286.00;10229768;28;2319;-68
2023/05/03 01:30:09;;;;;;;;;;;;;;;20.01;47.44;96296.75;10248274;28;1907;-68
2023/05/03 01:35:32;;;;;;;;;;;;;;;20.02;47.32;96305.44;10241638;28;2002;-68
2023/05/03 01:40:35;;;;;;;;;;;;;;;20.00;47.28;96297.03;10221347;28;1974;-68
2023/05/03 01:45:35;;;;;;;;;;;;;;;19.99;47.28;96290.19;10231726;28;2119;-67
2023/05/03 01:50:35;;;;;;;;;;;;;;;19.99;47.35;96296.22;10235431;28;4826;-68
2023/05/03 01:55:35;;;;;;;;;;;;;;;19.97;47.48;96300.19;10250059;28;1922;-68
2023/05/03 02:00:36;;;;;;;;;;;;;;;19.97;47.44;96294.91;10232905;28;1997;-67
2023/05/03 02:05:36;;;;;;;;;;;;;;;19.97;47.13;96302.81;10244873;28;2053;-68
2023/05/03 02:10:37;;;;;;;;;;;;;;;19.95;47.14;96304.88;10243664;28;1982;-68
2023/05/03 02:15:37;;;;;;;;;;;;;;;19.95;47.13;96296.97;10243406;28;2012;-68
2023/05/03 02:20:37;;;;;;;;;;;;;;;19.93;47.13;96291.97;10242431;28;1923;-68
2023/05/03 02:25:38;;;;;;;;;;;;;;;19.93;47.00;96293.81;10240012;28;1985;-68
2023/05/03 02:30:38;;;;;;;;;;;;;;;19.92;46.86;96294.88;10244301;28;2106;-68
2023/05/03 02:35:38;;;;;;;;;;;;;;;19.91;47.04;96293.28;10259097;28;2009;-67
2023/05/03 02:40:39;;;;;;;;;;;;;;;19.91;46.79;96295.91;10240928;28;1937;-68
2023/05/03 02:45:39;;;;;;;;;;;;;;;19.91;47.00;96293.28;10253335;28;2056;-68
2023/05/03 02:50:39;;;;;;;;;;;;;;;19.90;46.46;96294.34;10241684;28;4933;-68
2023/05/03 02:55:40;;;;;;;;;;;;;;;19.89;46.90;96298.00;10244402;28;1899;-68
2023/05/03 03:00:40;;;;;;;;;;;;;;;19.88;46.72;96289.34;10238522;28;1972;-68
2023/05/03 03:05:40;;;;;;;;;;;;;;;19.87;46.89;96298.28;10243497;28;1941;-68
2023/05/03 03:10:40;;;;;;;;;;;;;;;19.87;46.80;96302.72;10235834;28;1907;-67
2023/05/03 03:15:41;;;;;;;;;;;;;;;19.86;46.92;96296.69;10240631;28;2048;-67
2023/05/03 03:20:41;;;;;;;;;;;;;;;19.86;46.81;96303.78;10250159;28;1901;-67
2023/05/03 03:25:42;;;;;;;;;;;;;;;19.85;46.52;96303.00;10240149;28;1949;-68
2023/05/03 03:30:42;;;;;;;;;;;;;;;19.83;46.63;96299.03;10245095;28;1963;-68
2023/05/03 03:35:42;;;;;;;;;;;;;;;19.83;46.54;96291.94;10236253;28;1976;-68
2023/05/03 03:40:42;;;;;;;;;;;;;;;19.83;46.86;96296.41;10233384;28;2191;-68
2023/05/03 03:45:43;;;;;;;;;;;;;;;19.83;46.63;96307.72;10228434;28;1958;-68
2023/05/03 03:50:43;;;;;;;;;;;;;;;19.82;46.63;96297.47;10238786;28;5171;-68
2023/05/03 03:55:43;;;;;;;;;;;;;;;19.82;46.70;96305.34;10226192;28;2047;-67
2023/05/03 04:00:43;;;;;;;;;;;;;;;19.81;46.55;96311.66;10224155;28;2202;-67
2023/05/03 04:05:44;;;;;;;;;;;;;;;19.81;46.63;96309.03;10230998;28;2147;-68
2023/05/03 04:10:45;;;;;;;;;;;;;;;19.84;46.82;96313.78;10231311;28;2083;-68
2023/05/03 04:15:45;;;;;;;;;;;;;;;19.87;47.18;96310.63;10221094;28;1951;-68
2023/05/03 04:20:45;;;;;;;;;;;;;;;19.91;47.66;96315.13;10235369;28;1961;-68
2023/05/03 04:25:47;;;;;;;;;;;;;;;19.97;47.36;96321.22;10238244;28;2025;-67
2023/05/03 04:30:48;;;;;;;;;;;;;;;20.03;47.38;96322.84;10237701;28;2003;-68
2023/05/03 04:35:49;;;;;;;;;;;;;;;20.09;47.33;96332.34;10236170;28;2332;-68
2023/05/03 04:40:50;;;;;;;;;;;;;;;20.16;46.93;96338.16;10246028;28;1929;-68
2023/05/03 04:45:50;;;;;;;;;;;;;;;20.20;46.25;96340.03;10248593;28;1954;-67
2023/05/03 04:50:51;;;;;;;;;;;;;;;20.25;45.85;96347.97;10231112;28;4893;-68
2023/05/03 04:55:51;;;;;;;;;;;;;;;20.31;45.49;96351.41;10237819;28;1925;-68
2023/05/03 05:00:52;;;;;;;;;;;;;;;20.35;45.29;96344.59;10232685;28;1913;-68
2023/05/03 05:05:53;;;;;;;;;;;;;;;20.39;45.18;96356.19;10237517;28;2029;-68
2023/05/03 05:10:53;;;;;;;;;;;;;;;20.41;45.12;96356.72;10230856;28;2001;-68
2023/05/03 05:15:54;;;;;;;;;;;;;;;20.46;45.26;96359.38;10232433;28;1899;-70
2023/05/03 05:20:54;;;;;;;;;;;;;;;20.50;44.85;96359.66;10234031;28;2007;-66
2023/05/03 05:25:59;;;;;;;;;;;;;;;20.53;44.57;96362.56;10228913;28;2054;-67
2023/05/03 05:30:59;;;;;;;;;;;;;;;20.55;44.74;96371.00;10217071;28;2155;-68
2023/05/03 05:36:00;;;;;;;;;;;;;;;20.57;44.59;96373.34;10229096;28;2215;-68
2023/05/03 05:41:00;;;;;;;;;;;;;;;20.60;44.61;96376.28;10227630;28;1932;-70
2023/05/03 05:46:00;;;;;;;;;;;;;;;20.60;44.67;96376.28;10227800;28;2048;-68
2023/05/03 05:51:00;;;;;;;;;;;;;;;20.59;45.44;96372.06;10218203;28;4758;-68
2023/05/03 05:56:01;;;;;;;;;;;;;;;20.58;45.58;96382.84;10230995;28;1865;-68
2023/05/03 06:01:03;;;;;;;;;;;;;;;20.59;45.78;96379.97;10226708;28;1888;-68
2023/05/03 06:06:04;;;;;;;;;;;;;;;20.60;45.42;96378.13;10236578;28;2000;-67
2023/05/03 06:11:04;;;;;;;;;;;;;;;20.61;45.24;96387.63;10233541;28;1982;-68
2023/05/03 06:16:04;;;;;;;;;;;;;;;20.59;45.71;96395.75;10239199;28;1902;-67
2023/05/03 06:21:05;;;;;;;;;;;;;;;20.60;45.46;96394.72;10238538;28;1924;-68
2023/05/03 06:26:05;;;;;;;;;;;;;;;20.61;45.44;96398.94;10232144;28;2085;-68
2023/05/03 06:31:05;;;;;;;;;;;;;;;20.63;45.36;96396.81;10237165;28;1910;-68
2023/05/03 06:36:06;;;;;;;;;;;;;;;20.61;45.63;96404.19;10230939;28;1897;-68
2023/05/03 06:41:07;;;;;;;;;;;;;;;20.61;45.95;96406.06;10228747;28;1907;-68
2023/05/03 06:46:07;;;;;;;;;;;;;;;20.64;45.42;96403.69;10231093;28;2012;-67
2023/05/03 06:51:07;;;;;;;;;;;;;;;20.66;45.29;96393.69;10232013;28;4813;-68
2023/05/03 06:56:08;;;;;;;;;;;;;;;20.63;45.67;96411.88;10238199;28;1897;-68
2023/05/03 07:01:08;;;;;;;;;;;;;;;20.62;45.58;96408.44;10241390;28;1832;-68
2023/05/03 07:06:08;;;;;;;;;;;;;;;20.64;45.24;96403.69;10237878;28;1986;-68
2023/05/03 07:11:09;;;;;;;;;;;;;;;20.64;44.87;96408.16;10233663;28;1907;-68
2023/05/03 07:16:09;;;;;;;;;;;;;;;20.63;44.92;96402.09;10238394;28;1888;-68
2023/05/03 07:21:09;;;;;;;;;;;;;;;20.63;44.87;96401.31;10221188;28;1952;-68
2023/05/03 07:26:09;;;;;;;;;;;;;;;20.61;44.68;96398.94;10231900;28;2186;-67
2023/05/03 07:31:10;;;;;;;;;;;;;;;20.60;44.67;96393.94;10235693;28;2626;-68
2023/05/03 07:36:11;;;;;;;;;;;;;;;20.58;44.48;96396.81;10233302;28;2072;-67
2023/05/03 07:41:11;;;;;;;;;;;;;;;20.55;44.72;96394.69;10234983;28;1910;-68
2023/05/03 07:46:11;;;;;;;;;;;;;;;20.57;44.08;96397.84;10235562;28;1840;-68
2023/05/03 07:51:12;;;;;;;;;;;;;;;20.53;44.76;96402.06;10226936;28;5004;-68
2023/05/03 07:56:12;;;;;;;;;;;;;;;20.54;44.27;96395.75;10233444;28;2151;-68
2023/05/03 08:01:12;;;;;;;;;;;;;;;20.52;44.40;96392.59;10233507;28;1985;-68
2023/05/03 08:06:12;;;;;;;;;;;;;;;20.51;44.44;96388.34;10238068;28;1938;-67
2023/05/03 08:11:13;;;;;;;;;;;;;;;20.47;44.74;96386.50;10232642;28;1974;-67
2023/05/03 08:16:13;;;;;;;;;;;;;;;20.45;44.69;96378.06;10236258;28;1936;-68
2023/05/03 08:21:13;;;;;;;;;;;;;;;20.44;44.53;96390.44;10230365;28;2083;-67
2023/05/03 08:26:14;;;;;;;;;;;;;;;20.42;44.40;96386.47;10235240;28;1891;-67
2023/05/03 08:31:15;;;;;;;;;;;;;;;20.38;44.67;96394.09;10235827;28;1969;-67
2023/05/03 08:36:15;;;;;;;;;;;;;;;20.37;44.78;96392.50;10235348;28;1906;-68
2023/05/03 08:41:28;;;;;;;;;;;;;;;20.33;45.06;96382.75;10232604;28;1911;-68
2023/05/03 08:46:29;;;;;;;;;;;;;;;20.32;44.97;96381.94;10223549;28;1873;-67
2023/05/03 08:51:30;;;;;;;;;;;;;;;20.30;45.28;96386.69;10236621;28;4890;-69
2023/05/03 08:56:32;;;;;;;;;;;;;;;20.29;45.30;96390.38;10232794;28;1832;-67
2023/05/03 09:01:33;;;;;;;;;;;;;;;20.28;45.08;96383.50;10229475;28;1864;-68
2023/05/03 09:06:33;;;;;;;;;;;;;;;20.24;45.18;96387.69;10239844;28;1848;-67
2023/05/03 09:11:33;;;;;;;;;;;;;;;20.25;45.39;96399.84;10237606;28;2060;-68
2023/05/03 09:16:34;;;;;;;;;;;;;;;20.23;45.38;96405.34;10240913;28;2159;-68
2023/05/03 09:21:34;;;;;;;;;;;;;;;20.22;45.20;96405.59;10240057;28;2154;-68
2023/05/03 09:26:35;;;;;;;;;;;;;;;20.22;45.17;96408.22;10244446;28;1838;-68
2023/05/03 09:31:35;;;;;;;;;;;;;;;20.20;45.27;96402.41;10244931;28;1910;-68
2023/05/03 09:36:45;;;;;;;;;;;;;;;20.18;45.43;96401.84;10240043;28;1853;-67
2023/05/03 09:41:45;;;;;;;;;;;;;;;20.18;45.36;96402.66;10245076;28;1923;-67
2023/05/03 09:47:04;;;;;;;;;;;;;;;20.16;45.41;96396.06;10240258;28;2063;-68
2023/05/03 09:52:05;;;;;;;;;;;;;;;20.15;45.61;96397.13;10244115;28;4945;-67
2023/05/03 09:57:06;;;;;;;;;;;;;;;20.15;45.26;96395.25;10256434;28;1848;-68
2023/05/03 10:02:07;;;;;;;;;;;;;;;20.15;45.28;96387.34;10240604;28;1986;-68
2023/05/03 10:07:08;;;;;;;;;;;;;;;20.14;45.42;96393.69;10241170;28;2019;-68
2023/05/03 10:12:08;;;;;;;;;;;;;;;20.14;45.43;96385.00;10242894;28;2045;-68
2023/05/03 10:17:11;;;;;;;;;;;;;;;20.12;45.51;96381.81;10239413;28;2016;-67
2023/05/03 10:22:11;;;;;;;;;;;;;;;20.13;45.62;96378.16;10223952;28;1866;-68
2023/05/03 10:27:11;;;;;;;;;;;;;;;20.13;45.82;96370.25;10232812;28;2003;-67
2023/05/03 10:32:28;;;;;;;;;;;;;;;20.12;46.04;96376.56;10234265;28;1984;-67
2023/05/03 10:37:28;;;;;;;;;;;;;;;20.12;45.77;96368.66;10220048;28;1899;-68
2023/05/03 10:42:28;;;;;;;;;;;;;;;20.13;46.04;96370.25;10235393;28;2036;-67
2023/05/03 10:47:29;;;;;;;;;;;;;;;20.12;46.17;96361.56;10245970;28;1899;-67
2023/05/03 10:52:38;;;;;;;;;;;;;;;20.13;46.12;96362.38;10251861;28;4849;-67
2023/05/03 10:57:40;;;;;;;;;;;;;;;20.12;45.98;96352.88;10254180;28;1482;-68
2023/05/03 11:02:59;;;;;;;;;;;;;;;20.14;45.93;96359.47;10238603;28;1891;-67
2023/05/03 11:08:09;;;;;;;;;;;;;;;20.14;45.96;96353.41;10241611;28;2101;-67
2023/05/03 11:13:09;;;;;;;;;;;;;;;20.13;46.16;96352.59;10236041;28;1880;-68
2023/05/03 11:18:12;;;;;;;;;;;;;;;20.12;45.90;96351.03;10233483;28;1861;-67
2023/05/03 11:23:12;;;;;;;;;;;;;;;20.13;46.15;96355.22;10231233;28;1955;-67
2023/05/03 11:28:13;;;;;;;;;;;;;;;20.13;46.21;96349.97;10238234;28;1911;-67
2023/05/03 11:33:13;;;;;;;;;;;;;;;20.14;46.21;96348.94;10237900;28;2051;-68
2023/05/03 11:38:13;;;;;;;;;;;;;;;20.12;46.42;96340.50;10220926;28;1937;-67
2023/05/03 11:43:15;;;;;;;;;;;;;;;20.14;46.46;96340.25;10228998;28;1868;-68
2023/05/03 11:48:15;;;;;;;;;;;;;;;20.14;46.51;96334.97;10232727;28;1949;-67
2023/05/03 11:53:16;;;;;;;;;;;;;;;20.13;46.33;96330.78;10234492;28;4959;-67
2023/05/03 11:58:17;;;;;;;;;;;;;;;20.15;46.27;96328.69;10236341;28;1884;-68
2023/05/03 12:03:21;;;;;;;;;;;;;;;20.13;46.71;96326.28;10231351;28;1943;-67
2023/05/03 12:08:21;;;;;;;;;;;;;;;20.14;46.43;96321.81;10232899;28;2216;-67
2023/05/03 12:13:34;;;;;;;;;;;;;;;20.13;46.63;96312.34;10233082;28;1992;-68
2023/05/03 12:18:48;;;;;;;;;;;;;;;20.14;46.62;96309.47;10235471;28;1899;-67
2023/05/03 12:23:50;;;;;;;;;;;;;;;20.13;46.43;96304.47;10228658;28;1903;-68
2023/05/03 12:28:50;;;;;;;;;;;;;;;20.14;46.62;96311.28;10227747;28;1919;-67
2023/05/03 12:33:51;;;;;;;;;;;;;;;20.14;46.67;96306.03;10233374;28;1959;-68
2023/05/03 12:38:51;;;;;;;;;;;;;;;20.13;46.70;96307.09;10234558;28;1828;-68
2023/05/03 12:43:51;;;;;;;;;;;;;;;20.13;46.65;96288.66;10235279;28;1809;-68
2023/05/03 12:48:52;;;;;;;;;;;;;;;20.14;46.58;96293.66;10235839;28;4878;-67
2023/05/03 12:53:52;;;;;;;;;;;;;;;20.14;46.73;96283.13;10226501;28;1893;-67
2023/05/03 12:58:52;;;;;;;;;;;;;;;20.14;46.63;96279.69;10236334;28;1816;-67
2023/05/03 13:03:52;;;;;;;;;;;;;;;20.14;46.72;96272.59;10229713;28;2057;-68
2023/05/03 13:08:53;;;;;;;;;;;;;;;20.14;46.73;96272.59;10230016;28;2085;-68
2023/05/03 13:13:53;;;;;;;;;;;;;;;20.14;46.74;96262.06;10228379;28;1903;-68
2023/05/03 13:18:55;;;;;;;;;;;;;;;20.15;46.65;96260.25;10231424;28;1978;-68
2023/05/03 13:23:56;;;;;;;;;;;;;;;20.13;46.57;96243.91;10229516;28;1960;-68
2023/05/03 13:28:56;;;;;;;;;;;;;;;20.14;46.63;96246.28;10237044;28;1915;-68
2023/05/03 13:33:56;;;;;;;;;;;;;;;20.14;46.89;96240.22;10231036;28;2300;-67
2023/05/03 13:38:56;;;;;;;;;;;;;;;20.12;46.72;96232.59;10229901;28;1927;-68
2023/05/03 13:43:57;;;;;;;;;;;;;;;20.13;46.82;96246.56;10231377;28;1868;-68
2023/05/03 13:48:57;;;;;;;;;;;;;;;20.16;46.68;96243.38;10234409;28;4742;-68
2023/05/03 13:54:01;;;;;;;;;;;;;;;20.18;46.70;96238.66;10235987;28;2088;-68
2023/05/03 13:59:01;;;;;;;;;;;;;;;20.21;46.53;96238.19;10239960;28;2012;-68
2023/05/03 14:04:02;;;;;;;;;;;;;;;20.24;46.56;96235.00;10243226;28;2036;-67
2023/05/03 14:09:03;;;;;;;;;;;;;;;20.28;46.49;96230.81;10233208;28;1922;-68
2023/05/03 14:14:03;;;;;;;;;;;;;;;20.33;46.53;96222.94;10236198;28;1992;-68
2023/05/03 14:19:03;;;;;;;;;;;;;;;20.36;46.55;96232.94;10239728;28;2003;-68
2023/05/03 14:24:05;;;;;;;;;;;;;;;20.41;46.39;96227.69;10236948;28;2183;-68
2023/05/03 14:29:05;;;;;;;;;;;;;;;20.43;46.39;96215.06;10245336;28;1911;-69
2023/05/03 14:34:06;;;;;;;;;;;;;;;20.47;46.50;96210.84;10235822;28;1888;-68
2023/05/03 14:39:06;;;;;;;;;;;;;;;20.51;46.41;96201.38;10233912;28;2110;-68
2023/05/03 14:44:07;;;;;;;;;;;;;;;20.54;46.42;96200.84;10235285;28;2107;-68
2023/05/03 14:49:07;;;;;;;;;;;;;;;20.57;46.28;96196.88;10239625;28;4860;-68
2023/05/03 14:54:08;;;;;;;;;;;;;;;20.56;46.35;96190.84;10238168;28;2144;-68
2023/05/03 14:59:08;;;;;;;;;;;;;;;20.59;46.48;96194.78;10242713;28;1860;-68
2023/05/03 15:04:09;;;;;;;;;;;;;;;20.60;46.27;96202.44;10236880;28;1915;-68
2023/05/03 15:09:11;;;;;;;;;;;;;;;20.62;46.04;96195.06;10232780;28;2060;-68
2023/05/03 15:14:11;;;;;;;;;;;;;;;20.63;46.30;96198.50;10239869;28;1872;-68
2023/05/03 15:19:12;;;;;;;;;;;;;;;20.65;46.16;96201.66;10234578;28;1881;-68
2023/05/03 15:24:12;;;;;;;;;;;;;;;20.64;46.08;96198.22;10239086;28;1844;-68
2023/05/03 15:29:13;;;;;;;;;;;;;;;20.64;46.11;96197.44;10237797;28;2152;-68
2023/05/03 15:34:14;;;;;;;;;;;;;;;20.63;46.32;96201.91;10233097;28;1950;-68
2023/05/03 15:39:14;;;;;;;;;;;;;;;20.63;45.94;96196.63;10233248;28;2084;-68
2023/05/03 15:44:15;;;;;;;;;;;;;;;20.62;46.13;96200.34;10236407;28;1895;-68
2023/05/03 15:49:15;;;;;;;;;;;;;;;20.62;46.19;96196.91;10238643;28;4945;-68
2023/05/03 15:54:15;;;;;;;;;;;;;;;20.59;46.13;96202.69;10238343;28;1884;-68
2023/05/03 15:59:17;;;;;;;;;;;;;;;20.59;46.01;96211.38;10230434;28;2143;-68
2023/05/03 16:04:17;;;;;;;;;;;;;;;20.57;45.90;96192.41;10234772;28;1922;-68
2023/05/03 16:09:18;;;;;;;;;;;;;;;20.56;46.25;96196.13;10234384;28;1985;-68
2023/05/03 16:14:18;;;;;;;;;;;;;;;20.55;46.15;96194.53;10238463;28;2118;-68
2023/05/03 16:19:18;;;;;;;;;;;;;;;20.51;46.18;96193.47;10229553;28;2028;-68
2023/05/03 16:24:20;;;;;;;;;;;;;;;20.53;45.80;96191.38;10233042;28;1909;-68
2023/05/03 16:29:20;;;;;;;;;;;;;;;20.51;45.98;96182.94;10230645;28;1914;-68
2023/05/03 16:34:21;;;;;;;;;;;;;;;20.49;45.85;96179.78;10236140;28;2032;-68
2023/05/03 16:39:21;;;;;;;;;;;;;;;20.48;46.05;96186.09;10234690;28;1975;-68
2023/05/03 16:44:21;;;;;;;;;;;;;;;20.48;45.85;96194.00;10229739;28;2042;-68
2023/05/03 16:49:22;;;;;;;;;;;;;;;20.48;45.98;96183.47;10231258;28;4964;-68
2023/05/03 16:54:22;;;;;;;;;;;;;;;20.47;45.98;96178.44;10234144;28;1884;-67
2023/05/03 16:59:23;;;;;;;;;;;;;;;20.48;46.00;96188.75;10231136;28;1923;-68
2023/05/03 17:04:23;;;;;;;;;;;;;;;20.48;45.88;96186.09;10233054;28;1856;-68
2023/05/03 17:09:24;;;;;;;;;;;;;;;20.48;46.10;96183.47;10233004;28;1914;-68
2023/05/03 17:14:24;;;;;;;;;;;;;;;20.47;46.03;96181.09;10234400;28;1917;-68
2023/05/03 17:19:25;;;;;;;;;;;;;;;20.46;45.99;96180.31;10212947;28;2044;-68
2023/05/03 17:24:26;;;;;;;;;;;;;;;20.46;45.98;96179.50;10233073;28;2053;-68
2023/05/03 17:29:27;;;;;;;;;;;;;;;20.45;45.91;96183.97;10238980;28;1958;-68
2023/05/03 17:34:27;;;;;;;;;;;;;;;20.45;45.98;96183.19;10219956;28;2219;-68
2023/05/03 17:39:27;;;;;;;;;;;;;;;20.43;45.73;96186.09;10234247;28;1986;-68
2023/05/03 17:44:27;;;;;;;;;;;;;;;20.41;45.80;96177.66;10243808;28;2015;-67
2023/05/03 17:49:31;;;;;;;;;;;;;;;20.42;45.89;96184.53;10240961;28;2030;-68
2023/05/03 17:54:31;;;;;;;;;;;;;;;20.40;45.59;96181.38;10241083;28;1875;-68
2023/05/03 17:59:31;;;;;;;;;;;;;;;20.41;45.66;96193.47;10236154;28;1945;-67
2023/05/03 18:04:31;;;;;;;;;;;;;;;20.41;45.65;96198.72;10230979;28;1918;-68
2023/05/03 18:09:32;;;;;;;;;;;;;;;20.42;45.50;96194.25;10236645;28;1915;-68
2023/05/03 18:14:35;;;;;;;;;;;;;;;20.43;45.63;96195.81;10238585;28;2227;-68
2023/05/03 18:19:36;;;;;;;;;;;;;;;20.42;45.66;96186.38;10232106;28;2011;-68
2023/05/03 18:24:36;;;;;;;;;;;;;;;20.42;45.27;96181.09;10242931;28;2075;-68
2023/05/03 18:29:36;;;;;;;;;;;;;;;20.43;45.60;96201.09;10240515;28;1999;-68
2023/05/03 18:34:37;;;;;;;;;;;;;;;20.39;45.37;96198.19;10223101;28;1939;-69
2023/05/03 18:39:37;;;;;;;;;;;;;;;20.40;45.52;96201.63;10220662;28;2085;-67
2023/05/03 18:44:38;;;;;;;;;;;;;;;20.39;45.53;96206.09;10232092;28;1861;-68
2023/05/03 18:49:39;;;;;;;;;;;;;;;20.37;45.46;96208.19;10227861;28;5077;-68
2023/05/03 18:54:39;;;;;;;;;;;;;;;20.38;45.33;96214.25;10231987;28;1921;-68
2023/05/03 18:59:40;;;;;;;;;;;;;;;20.38;45.46;96236.09;10223093;28;2081;-68
2023/05/03 19:04:41;;;;;;;;;;;;;;;20.38;45.27;96240.59;10235128;28;1981;-68
2023/05/03 19:09:41;;;;;;;;;;;;;;;20.39;45.53;96242.97;10242409;28;2115;-68
2023/05/03 19:14:41;;;;;;;;;;;;;;;20.39;45.37;96240.31;10238314;28;2037;-68
2023/05/03 19:19:42;;;;;;;;;;;;;;;20.40;45.32;96235.84;10219788;28;1955;-68
2023/05/03 19:24:42;;;;;;;;;;;;;;;20.41;45.14;96240.06;10239642;28;2028;-67
2023/05/03 19:29:42;;;;;;;;;;;;;;;20.43;45.08;96244.03;10235256;28;1907;-67
2023/05/03 19:34:43;;;;;;;;;;;;;;;20.43;45.19;96241.38;10238466;28;2481;-68
2023/05/03 19:39:43;;;;;;;;;;;;;;;20.44;45.14;96231.66;10232783;28;1876;-67
2023/05/03 19:44:43;;;;;;;;;;;;;;;20.42;45.15;96225.84;10234659;28;1895;-67
2023/05/03 19:49:44;;;;;;;;;;;;;;;20.43;45.11;96233.50;10231974;28;4868;-69
2023/05/03 19:54:44;;;;;;;;;;;;;;;20.42;44.92;96234.56;10229208;28;1908;-70
2023/05/03 19:59:46;;;;;;;;;;;;;;;20.41;45.00;96232.97;10234062;28;1926;-69
2023/05/03 20:04:46;;;;;;;;;;;;;;;20.41;45.10;96240.06;10230023;28;1903;-69
2023/05/03 20:09:47;;;;;;;;;;;;;;;20.40;44.96;96239.28;10217802;28;2037;-69
2023/05/03 20:14:47;;;;;;;;;;;;;;;20.38;45.07;96238.72;10235623;28;1895;-69
2023/05/03 20:19:50;;;;;;;;;;;;;;;20.39;45.04;96236.91;10236173;28;2038;-69
2023/05/03 20:24:51;;;;;;;;;;;;;;;20.37;44.88;96234.53;10238630;28;2021;-67
2023/05/03 20:29:51;;;;;;;;;;;;;;;20.35;45.03;96234.00;10215972;28;2354;-67
2023/05/03 20:34:52;;;;;;;;;;;;;;;20.35;44.90;96230.56;10231261;28;1907;-67
2023/05/03 20:39:52;;;;;;;;;;;;;;;20.34;44.69;96229.78;10230386;28;1933;-67
2023/05/03 20:44:52;;;;;;;;;;;;;;;20.32;44.60;96236.38;10232760;28;1841;-67
2023/05/03 20:49:52;;;;;;;;;;;;;;;20.31;44.79;96232.94;10235566;28;4915;-67
2023/05/03 20:54:53;;;;;;;;;;;;;;;20.29;44.77;96229.78;10228444;28;1935;-67
2023/05/03 20:59:53;;;;;;;;;;;;;;;20.29;44.62;96237.69;10235697;28;1903;-67
2023/05/03 21:04:53;;;;;;;;;;;;;;;20.28;44.51;96241.34;10241688;28;1844;-67
2023/05/03 21:09:53;;;;;;;;;;;;;;;20.25;44.59;96240.03;10238665;28;1974;-67
2023/05/03 21:14:54;;;;;;;;;;;;;;;20.25;44.71;96231.34;10218498;28;2026;-67
2023/05/03 21:19:54;;;;;;;;;;;;;;;20.24;44.53;96229.75;10242773;28;1828;-69
2023/05/03 21:24:55;;;;;;;;;;;;;;;20.24;44.55;96233.19;10238807;28;2024;-69
2023/05/03 21:29:55;;;;;;;;;;;;;;;20.22;44.58;96216.84;10237351;28;2014;-69
2023/05/03 21:34:56;;;;;;;;;;;;;;;20.21;44.50;96210.03;10235073;28;1956;-68
2023/05/03 21:39:56;;;;;;;;;;;;;;;20.19;44.48;96204.22;10237972;28;1936;-69
2023/05/03 21:44:56;;;;;;;;;;;;;;;20.18;44.61;96205.22;10231493;28;2079;-69
2023/05/03 21:49:57;;;;;;;;;;;;;;;20.17;44.54;96202.88;10239428;28;4981;-65
2023/05/03 21:54:58;;;;;;;;;;;;;;;20.17;44.65;96197.59;10239232;28;1908;-69
2023/05/03 21:59:58;;;;;;;;;;;;;;;20.16;44.65;96196.81;10239389;28;1899;-69
2023/05/03 22:04:58;;;;;;;;;;;;;;;20.15;44.48;96199.72;10241763;28;1958;-68
2023/05/03 22:09:59;;;;;;;;;;;;;;;20.14;44.54;96203.38;10242485;28;1911;-69
2023/05/03 22:14:59;;;;;;;;;;;;;;;20.15;44.46;96194.44;10241185;28;1876;-69
2023/05/03 22:19:59;;;;;;;;;;;;;;;20.12;44.69;96197.59;10233371;28;1924;-69
2023/05/03 22:25:00;;;;;;;;;;;;;;;20.12;44.52;96192.31;10240190;28;2052;-68
2023/05/03 22:30:00;;;;;;;;;;;;;;;20.10;44.78;96194.41;10241213;28;1915;-68
2023/05/03 22:35:00;;;;;;;;;;;;;;;20.10;44.58;96187.31;10236721;28;1988;-69
2023/05/03 22:40:00;;;;;;;;;;;;;;;20.09;44.41;96184.97;10232941;28;1861;-69
2023/05/03 22:45:01;;;;;;;;;;;;;;;20.07;44.60;96179.94;10232286;28;1954;-69
2023/05/03 22:50:01;;;;;;;;;;;;;;;20.07;44.40;96177.31;10234272;28;4837;-68
2023/05/03 22:55:02;;;;;;;;;;;;;;;20.06;44.62;96167.03;10238273;28;1949;-69
2023/05/03 23:00:03;;;;;;;;;;;;;;;20.05;44.58;96179.41;10234004;28;1876;-68
2023/05/03 23:05:03;;;;;;;;;;;;;;;20.04;44.35;96172.56;10229426;28;1918;-68
2023/05/03 23:10:03;;;;;;;;;;;;;;;20.03;44.37;96170.97;10209929;28;1973;-68
2023/05/03 23:15:04;;;;;;;;;;;;;;;20.03;44.45;96173.59;10237805;28;2016;-69
2023/05/03 23:20:05;;;;;;;;;;;;;;;20.02;44.32;96169.41;10233509;28;2147;-68
2023/05/03 23:25:05;;;;;;;;;;;;;;;20.01;44.37;96172.31;10230681;28;1960;-68
2023/05/03 23:30:06;;;;;;;;;;;;;;;20.01;44.36;96172.31;10235860;28;1983;-68
2023/05/03 23:35:07;;;;;;;;;;;;;;;19.99;44.38;96171.78;10237500;28;1951;-68
2023/05/03 23:40:07;;;;;;;;;;;;;;;19.99;44.10;96166.50;10230398;28;2005;-69
2023/05/03 23:45:08;;;;;;;;;;;;;;;19.98;44.10;96155.19;10230809;28;1934;-68
2023/05/03 23:50:09;;;;;;;;;;;;;;;19.97;44.09;96150.19;10227958;28;5024;-69
2023/05/03 23:55:09;;;;;;;;;;;;;;;19.96;44.17;96153.88;10232647;28;1900;-69
